Time,TemperatureF,DewpointF,PressureIn,WindDirection,WindDirectionDegrees,WindSpeedMPH,WindSpeedGustMPH,Humidity,HourlyPrecipIn,Conditions,Clouds,dailyrainin,SolarRadiationWatts/m^2,SoftwareType,DateUTC
2013-08-05 00:08:00,58.7,49.0,30.11,WNW,292,0.0,0.0,70,0.00,,,0.00,0,weatherlink.com 1.10,2013-08-05 04:08:00,
2013-08-05 00:23:00,58.0,49.0,30.11,WNW,292,0.0,0.0,72,0.00,,,0.00,0,weatherlink.com 1.10,2013-08-05 04:23:00,
2013-08-05 00:38:00,57.4,49.0,30.11,WNW,292,0.0,0.0,73,0.00,,,0.00,0,weatherlink.com 1.10,2013-08-05 04:38:00,
2013-08-05 00:53:00,56.9,49.0,30.11,WNW,292,0.0,0.0,74,0.00,,,0.00,0,weatherlink.com 1.10,2013-08-05 04:53:00,
2013-08-05 01:08:00,56.3,49.0,30.11,WNW,292,0.0,0.0,77,0.00,,,0.00,0,weatherlink.com 1.10,2013-08-05 05:08:00,
2013-08-05 01:23:00,55.8,49.0,30.11,WNW,292,0.0,0.0,78,0.00,,,0.00,0,weatherlink.com 1.10,2013-08-05 05:23:00,
2013-08-05 01:38:00,55.2,49.0,30.11,WNW,292,0.0,0.0,80,0.00,,,0.00,0,weatherlink.com 1.10,2013-08-05 05:38:00,
2013-08-05 01:53:00,54.7,49.0,30.11,WNW,292,0.0,0.0,80,0.00,,,0.00,0,weatherlink.com 1.10,2013-08-05 05:53:00,
2013-08-05 02:09:00,54.3,49.0,30.11,WNW,292,0.0,0.0,81,0.00,,,0.00,0,weatherlink.com 1.10,2013-08-05 06:09:00,
2013-08-05 02:24:00,54.0,49.0,30.10,WNW,292,0.0,0.0,82,0.00,,,0.00,0,weatherlink.com 1.10,2013-08-05 06:24:00,
2013-08-05 02:38:00,53.7,49.0,30.10,WNW,291,0.0,0.0,84,0.00,,,0.00,0,weatherlink.com 1.10,2013-08-05 06:38:00,
2013-08-05 02:53:00,53.4,49.0,30.10,WNW,292,0.0,0.0,84,0.00,,,0.00,0,weatherlink.com 1.10,2013-08-05 06:53:00,
2013-08-05 03:09:00,53.2,49.0,30.10,WNW,292,0.0,0.0,85,0.00,,,0.00,0,weatherlink.com 1.10,2013-08-05 07:09:00,
2013-08-05 03:23:00,52.8,48.0,30.10,WNW,292,0.0,0.0,85,0.00,,,0.00,0,weatherlink.com 1.10,2013-08-05 07:23:00,
2013-08-05 03:39:00,52.5,49.0,30.10,WNW,291,0.0,0.0,86,0.00,,,0.00,0,weatherlink.com 1.10,2013-08-05 07:39:00,
2013-08-05 03:54:00,52.3,49.0,30.09,WNW,292,0.0,0.0,87,0.00,,,0.00,0,weatherlink.com 1.10,2013-08-05 07:54:00,
2013-08-05 04:09:00,52.3,49.0,30.09,WNW,291,0.0,0.0,87,0.00,,,0.00,0,weatherlink.com 1.10,2013-08-05 08:09:00,
2013-08-05 04:24:00,52.0,48.0,30.08,WNW,291,0.0,0.0,87,0.00,,,0.00,0,weatherlink.com 1.10,2013-08-05 08:24:00,
2013-08-05 04:39:00,51.8,48.0,30.08,WNW,292,0.0,0.0,88,0.00,,,0.00,0,weatherlink.com 1.10,2013-08-05 08:39:00,
2013-08-05 04:54:00,51.6,48.0,30.08,WNW,291,0.0,0.0,88,0.00,,,0.00,0,weatherlink.com 1.10,2013-08-05 08:54:00,
2013-08-05 05:09:00,51.4,48.0,30.09,WNW,292,0.0,0.0,88,0.00,,,0.00,0,weatherlink.com 1.10,2013-08-05 09:09:00,
2013-08-05 05:24:00,51.2,48.0,30.08,WNW,291,0.0,0.0,89,0.00,,,0.00,0,weatherlink.com 1.10,2013-08-05 09:24:00,
2013-08-05 05:54:00,50.9,48.0,30.08,WNW,291,0.0,0.0,89,0.00,,,0.00,0,weatherlink.com 1.10,2013-08-05 09:54:00,
2013-08-05 06:09:00,50.7,48.0,30.09,WNW,292,0.0,0.0,89,0.00,,,0.00,0,weatherlink.com 1.10,2013-08-05 10:09:00,
2013-08-05 06:24:00,50.6,48.0,30.09,WNW,292,0.0,0.0,90,0.00,,,0.00,0,weatherlink.com 1.10,2013-08-05 10:24:00,
2013-08-05 06:39:00,50.4,48.0,30.09,WNW,291,0.0,0.0,90,0.00,,,0.00,0,weatherlink.com 1.10,2013-08-05 10:39:00,
2013-08-05 06:54:00,50.4,48.0,30.09,WNW,292,0.0,0.0,90,0.00,,,0.00,14,weatherlink.com 1.10,2013-08-05 10:54:00,
2013-08-05 07:09:00,50.4,48.0,30.09,WNW,291,0.0,0.0,90,0.00,,,0.00,23,weatherlink.com 1.10,2013-08-05 11:09:00,
2013-08-05 07:24:00,50.6,48.0,30.09,WNW,292,0.0,0.0,91,0.00,,,0.00,39,weatherlink.com 1.10,2013-08-05 11:24:00,
2013-08-05 07:39:00,51.2,49.0,30.09,WNW,292,0.0,0.0,91,0.00,,,0.00,53,weatherlink.com 1.10,2013-08-05 11:39:00,
2013-08-05 07:54:00,51.8,49.0,30.09,WNW,291,0.0,0.0,91,0.00,,,0.00,93,weatherlink.com 1.10,2013-08-05 11:54:00,
2013-08-05 08:39:00,54.8,53.0,30.09,WNW,292,0.0,0.0,92,0.00,,,0.00,171,weatherlink.com 1.10,2013-08-05 12:39:00,
2013-08-05 08:54:00,55.7,54.0,30.09,WNW,292,0.0,0.0,92,0.00,,,0.00,146,weatherlink.com 1.10,2013-08-05 12:54:00,
2013-08-05 09:09:00,56.5,54.0,30.09,WNW,292,0.0,0.0,92,0.00,,,0.00,158,weatherlink.com 1.10,2013-08-05 13:09:00,
2013-08-05 09:24:00,57.1,55.0,30.09,WNW,292,0.0,0.0,92,0.00,,,0.00,178,weatherlink.com 1.10,2013-08-05 13:24:00,
2013-08-05 09:54:00,59.0,56.0,30.09,WNW,292,0.0,0.0,89,0.00,,,0.00,158,weatherlink.com 1.10,2013-08-05 13:54:00,
2013-08-05 10:24:00,60.4,55.0,30.08,WNW,292,0.0,2.0,83,0.00,,,0.00,176,weatherlink.com 1.10,2013-08-05 14:24:00,
2013-08-05 10:40:00,61.1,55.0,30.08,WNW,292,0.0,1.0,80,0.00,,,0.00,216,weatherlink.com 1.10,2013-08-05 14:40:00,
2013-08-05 10:55:00,61.9,55.0,30.07,WNW,292,0.0,1.0,77,0.00,,,0.00,185,weatherlink.com 1.10,2013-08-05 14:55:00,
2013-08-05 11:10:00,62.5,55.0,30.06,WNW,292,0.0,2.0,76,0.00,,,0.00,167,weatherlink.com 1.10,2013-08-05 15:10:00,
2013-08-05 11:24:00,63.0,55.0,30.06,WNW,292,0.0,0.0,74,0.00,,,0.00,202,weatherlink.com 1.10,2013-08-05 15:24:00,
2013-08-05 11:40:00,63.7,56.0,30.06,WNW,294,0.0,2.0,75,0.00,,,0.00,253,weatherlink.com 1.10,2013-08-05 15:40:00,
2013-08-05 12:10:00,65.5,55.0,30.04,NE,51,2.0,4.0,69,0.00,,,0.00,487,weatherlink.com 1.10,2013-08-05 16:10:00,
2013-08-05 12:25:00,66.4,56.0,30.03,ENE,76,0.0,5.0,69,0.00,,,0.00,348,weatherlink.com 1.10,2013-08-05 16:25:00,
2013-08-05 12:40:00,67.1,57.0,30.03,ENE,63,1.0,7.0,69,0.00,,,0.00,348,weatherlink.com 1.10,2013-08-05 16:40:00,
2013-08-05 12:55:00,67.8,56.0,30.02,East,79,2.0,3.0,66,0.00,,,0.00,492,weatherlink.com 1.10,2013-08-05 16:55:00,
2013-08-05 13:10:00,68.9,57.0,30.02,East,88,0.0,2.0,65,0.00,,,0.00,417,weatherlink.com 1.10,2013-08-05 17:10:00,
2013-08-05 13:25:00,69.2,55.0,30.02,East,80,0.0,5.0,60,0.00,,,0.00,330,weatherlink.com 1.10,2013-08-05 17:25:00,
2013-08-05 13:40:00,69.4,55.0,30.04,East,80,1.0,3.0,60,0.00,,,0.00,183,weatherlink.com 1.10,2013-08-05 17:40:00,
2013-08-05 13:55:00,69.0,53.0,30.04,East,94,0.0,3.0,58,0.00,,,0.00,141,weatherlink.com 1.10,2013-08-05 17:55:00,
2013-08-05 14:10:00,68.7,54.0,30.03,ESE,102,1.0,2.0,60,0.00,,,0.00,158,weatherlink.com 1.10,2013-08-05 18:10:00,
2013-08-05 14:25:00,68.5,55.0,30.02,ESE,103,0.0,3.0,63,0.00,,,0.00,188,weatherlink.com 1.10,2013-08-05 18:25:00,
2013-08-05 14:40:00,68.4,56.0,30.01,ESE,119,1.0,3.0,64,0.00,,,0.00,167,weatherlink.com 1.10,2013-08-05 18:40:00,
2013-08-05 14:55:00,68.1,55.0,30.01,SE,146,0.0,4.0,63,0.00,,,0.00,113,weatherlink.com 1.10,2013-08-05 18:55:00,
2013-08-05 15:10:00,67.8,56.0,30.02,SSE,154,0.0,4.0,66,0.00,,,0.00,221,weatherlink.com 1.10,2013-08-05 19:10:00,
2013-08-05 15:25:00,68.4,56.0,30.01,SE,136,1.0,3.0,65,0.00,,,0.00,308,weatherlink.com 1.10,2013-08-05 19:25:00,
2013-08-05 15:40:00,68.7,56.0,30.00,ENE,78,0.0,5.0,64,0.00,,,0.00,167,weatherlink.com 1.10,2013-08-05 19:40:00,
2013-08-05 15:55:00,68.5,56.0,30.00,ENE,78,0.0,4.0,65,0.00,,,0.00,169,weatherlink.com 1.10,2013-08-05 19:55:00,
2013-08-05 16:10:00,68.3,56.0,29.99,East,82,0.0,3.0,65,0.00,,,0.00,158,weatherlink.com 1.10,2013-08-05 20:10:00,
2013-08-05 16:25:00,68.2,56.0,29.99,East,82,2.0,2.0,66,0.00,,,0.00,158,weatherlink.com 1.10,2013-08-05 20:25:00,
2013-08-05 16:40:00,68.5,57.0,29.99,East,86,2.0,3.0,67,0.00,,,0.00,265,weatherlink.com 1.10,2013-08-05 20:40:00,
2013-08-05 16:55:00,69.5,58.0,29.98,East,99,1.0,6.0,66,0.00,,,0.00,441,weatherlink.com 1.10,2013-08-05 20:55:00,
2013-08-05 17:11:00,70.8,57.0,29.98,SE,125,2.0,4.0,63,0.00,,,0.00,473,weatherlink.com 1.10,2013-08-05 21:11:00,
2013-08-05 17:26:00,71.0,58.0,29.98,NNW,336,0.0,4.0,63,0.00,,,0.00,248,weatherlink.com 1.10,2013-08-05 21:26:00,
2013-08-05 17:41:00,71.2,58.0,29.98,NNW,332,0.0,3.0,64,0.00,,,0.00,232,weatherlink.com 1.10,2013-08-05 21:41:00,
2013-08-05 17:56:00,71.5,58.0,29.98,East,96,0.0,5.0,63,0.00,,,0.00,250,weatherlink.com 1.10,2013-08-05 21:56:00,
2013-08-05 18:26:00,71.0,58.0,29.97,WSW,240,0.0,4.0,64,0.00,,,0.00,120,weatherlink.com 1.10,2013-08-05 22:26:00,
2013-08-05 18:41:00,71.0,59.0,29.96,NNW,329,0.0,2.0,65,0.00,,,0.00,49,weatherlink.com 1.10,2013-08-05 22:41:00,
2013-08-05 18:56:00,70.8,59.0,29.95,North,5,0.0,0.0,66,0.00,,,0.00,88,weatherlink.com 1.10,2013-08-05 22:56:00,
2013-08-05 19:11:00,70.7,59.0,29.95,North,5,0.0,1.0,67,0.00,,,0.00,54,weatherlink.com 1.10,2013-08-05 23:11:00,
2013-08-05 19:26:00,70.4,59.0,29.94,North,5,0.0,2.0,67,0.00,,,0.00,70,weatherlink.com 1.10,2013-08-05 23:26:00,
2013-08-05 19:41:00,70.2,59.0,29.94,North,11,0.0,2.0,68,0.00,,,0.00,9,weatherlink.com 1.10,2013-08-05 23:41:00,
2013-08-05 19:56:00,69.8,59.0,29.94,NNE,15,0.0,2.0,68,0.00,,,0.00,69,weatherlink.com 1.10,2013-08-05 23:56:00,
2013-08-05 20:11:00,69.6,59.0,29.93,NNE,17,0.0,0.0,68,0.00,,,0.00,25,weatherlink.com 1.10,2013-08-06 00:11:00,
2013-08-05 20:26:00,69.4,59.0,29.93,NNE,17,0.0,1.0,69,0.00,,,0.00,21,weatherlink.com 1.10,2013-08-06 00:26:00,
2013-08-05 20:56:00,68.7,59.0,29.92,NE,52,0.0,4.0,70,0.00,,,0.00,0,weatherlink.com 1.10,2013-08-06 00:56:00,
2013-08-05 21:11:00,68.4,59.0,29.92,ENE,59,0.0,3.0,72,0.00,,,0.00,0,weatherlink.com 1.10,2013-08-06 01:11:00,
2013-08-05 21:41:00,67.8,59.0,29.92,ENE,59,0.0,1.0,73,0.00,,,0.00,0,weatherlink.com 1.10,2013-08-06 01:41:00,
2013-08-05 21:56:00,67.6,59.0,29.93,ENE,59,0.0,2.0,73,0.00,,,0.00,0,weatherlink.com 1.10,2013-08-06 01:56:00,
2013-08-05 22:11:00,67.5,59.0,29.93,ENE,59,0.0,0.0,74,0.00,,,0.00,0,weatherlink.com 1.10,2013-08-06 02:11:00,
2013-08-05 22:26:00,67.4,59.0,29.92,ENE,59,0.0,2.0,75,0.00,,,0.00,0,weatherlink.com 1.10,2013-08-06 02:26:00,
2013-08-05 22:56:00,67.1,59.0,29.92,ENE,59,0.0,2.0,76,0.00,,,0.00,0,weatherlink.com 1.10,2013-08-06 02:56:00,
2013-08-05 23:11:00,67.1,59.0,29.93,ENE,67,0.0,5.0,76,0.00,,,0.00,0,weatherlink.com 1.10,2013-08-06 03:11:00,
2013-08-05 23:26:00,67.2,59.0,29.93,ENE,67,0.0,2.0,76,0.00,,,0.00,0,weatherlink.com 1.10,2013-08-06 03:26:00,
2013-08-05 23:41:00,67.2,60.0,29.93,ENE,67,0.0,0.0,77,0.00,,,0.00,0,weatherlink.com 1.10,2013-08-06 03:41:00,
2013-08-05 23:56:00,67.2,61.0,29.93,ENE,71,1.0,3.0,80,0.00,,,0.00,0,weatherlink.com 1.10,2013-08-06 03:56:00,